Time;durP1;ratioP1;P1;durP2;ratioP2;P2;SDS_P1;SDS_P2;PMS_P1;PMS_P2;Temp;Humidity;BMP_temperature;BMP_pressure;BME280_temperature;BME280_humidity;BME280_pressure;Samples;Min_cycle;Max_cycle;Signal;HPM_P1;HPM_P2
2021/12/04 00:01:11;;;;;;;0.00;0.00;;;;;;;4.55;80.10;98289.47;5032200;28;20021;-48
2021/12/04 00:03:41;;;;;;;0.00;0.00;;;;;;;4.34;79.93;98296.06;5032126;28;20471;-48
2021/12/04 00:06:15;;;;;;;0.00;0.00;;;;;;;4.38;80.65;98288.72;5032196;28;20507;-47
2021/12/04 00:08:44;;;;;;;0.65;0.65;;;;;;;4.36;80.60;98285.50;5032044;28;20487;-47
2021/12/04 00:11:10;;;;;;;0.38;0.38;;;;;;;4.31;80.21;98285.22;5032020;28;20022;-48
2021/12/04 00:13:36;;;;;;;2.92;2.08;;;;;;;4.39;81.09;98259.19;5032243;28;20117;-47
2021/12/04 00:16:02;;;;;;;0.20;0.20;;;;;;;4.58;80.72;98278.72;5031445;28;20036;-47
2021/12/04 00:18:28;;;;;;;0.30;0.30;;;;;;;4.56;80.07;98267.69;5014022;28;20403;-48
2021/12/04 00:20:54;;;;;;;0.00;0.00;;;;;;;4.47;80.41;98272.13;5031854;28;20033;-48
2021/12/04 00:23:20;;;;;;;0.30;0.30;;;;;;;4.34;80.38;98266.66;5031847;28;20100;-47
2021/12/04 00:25:45;;;;;;;1.65;1.55;;;;;;;4.23;80.68;98261.88;5031829;28;20402;-48
2021/12/04 00:28:11;;;;;;;0.47;0.47;;;;;;;4.16;80.85;98262.53;5031831;28;20022;-48
2021/12/04 00:30:37;;;;;;;0.00;0.00;;;;;;;4.25;81.24;98255.53;5031816;28;20080;-48
2021/12/04 00:33:14;;;;;;;89.78;80.22;;;;;;;4.30;80.80;98222.03;5014003;28;20517;-48
2021/12/04 00:35:46;;;;;;;63.92;57.13;;;;;;;4.50;81.57;98235.41;5031441;28;20042;-48
2021/12/04 00:49:13;;;;;;;4.90;2.38;;;;;;;4.80;81.23;98214.72;5031677;28;20044;-48
2021/12/04 00:51:45;;;;;;;0.45;0.45;;;;;;;5.20;81.63;98204.94;5031656;28;20025;-48
2021/12/04 00:54:13;;;;;;;1.50;1.45;;;;;;;5.44;81.58;98209.09;5031651;28;20035;-48
2021/12/04 00:56:41;;;;;;;0.10;0.10;;;;;;;5.52;81.15;98216.81;5031526;28;20403;-48
2021/12/04 00:59:08;;;;;;;0.10;0.10;;;;;;;5.56;80.98;98215.47;5031529;28;20030;-48
2021/12/04 01:01:36;;;;;;;0.10;0.10;;;;;;;5.73;80.99;98216.06;5031492;28;20080;-48
2021/12/04 01:04:01;;;;;;;0.10;0.10;;;;;;;5.72;79.95;98219.69;5031381;28;20037;-48
2021/12/04 01:06:27;;;;;;;0.00;0.00;;;;;;;5.59;80.34;98220.31;5013685;28;20021;-48
2021/12/04 01:08:53;;;;;;;0.10;0.10;;;;;;;5.40;80.50;98234.66;5031415;28;20442;-48
2021/12/04 01:11:19;;;;;;;0.00;0.00;;;;;;;5.47;80.46;98233.94;5031390;28;20100;-48
2021/12/04 01:13:45;;;;;;;0.20;0.20;;;;;;;5.49;81.25;98227.56;5031438;28;20036;-48
2021/12/04 01:16:11;;;;;;;0.20;0.20;;;;;;;5.37;81.11;98218.59;5013539;28;20025;-48
2021/12/04 01:18:38;;;;;;;0.25;0.25;;;;;;;5.40;81.39;98226.06;5013601;28;20030;-48
2021/12/04 01:21:04;;;;;;;0.45;0.30;;;;;;;5.52;80.68;98209.00;5013571;28;20021;-47
2021/12/04 01:23:30;;;;;;;0.00;0.00;;;;;;;5.65;80.89;98199.75;5031200;28;20113;-47
2021/12/04 01:25:55;;;;;;;0.00;0.00;;;;;;;5.65;80.86;98210.16;5032417;28;20026;-48
2021/12/04 01:28:21;;;;;;;0.45;0.45;;;;;;;5.71;81.22;98204.22;5035015;28;20080;-48
2021/12/04 01:30:47;;;;;;;0.00;0.00;;;;;;;5.73;81.53;98200.44;5034998;28;20025;-48
2021/12/04 01:33:13;;;;;;;0.00;0.00;;;;;;;5.82;81.48;98200.38;5034962;28;20021;-48
2021/12/04 01:35:39;;;;;;;0.00;0.00;;;;;;;5.94;80.92;98199.72;5016759;28;20056;-49
2021/12/04 01:38:05;;;;;;;0.00;0.00;;;;;;;5.95;80.50;98195.34;5034848;28;20167;-49
2021/12/04 01:40:31;;;;;;;0.00;0.00;;;;;;;5.91;80.33;98196.66;5034724;28;20029;-48
2021/12/04 01:42:57;;;;;;;0.00;0.00;;;;;;;5.87;79.61;98198.03;5034799;28;20029;-48
2021/12/04 01:45:23;;;;;;;0.00;0.00;;;;;;;5.91;80.08;98186.25;5016682;28;20022;-48
2021/12/04 01:47:49;;;;;;;0.10;0.10;;;;;;;5.90;79.29;98189.88;5034680;28;20021;-49
2021/12/04 01:50:15;;;;;;;0.00;0.00;;;;;;;5.84;79.29;98195.81;5016631;28;20036;-48
2021/12/04 01:52:41;;;;;;;0.08;0.08;;;;;;;5.83;79.81;98199.38;5034470;28;20041;-48
2021/12/04 01:55:08;;;;;;;0.00;0.00;;;;;;;5.86;79.57;98186.81;5016789;28;20514;-49
2021/12/04 01:57:34;;;;;;;0.03;0.03;;;;;;;5.91;80.18;98175.84;5034417;28;20029;-49
2021/12/04 02:00:00;;;;;;;0.00;0.00;;;;;;;6.02;80.39;98175.41;5016540;28;20029;-48
2021/12/04 02:02:25;;;;;;;0.00;0.00;;;;;;;6.06;80.10;98160.22;5034255;28;20051;-47
2021/12/04 02:04:51;;;;;;;0.00;0.00;;;;;;;6.04;79.05;98157.78;5034312;28;20025;-48
2021/12/04 02:07:19;;;;;;;0.00;0.00;;;;;;;5.96;79.06;98148.28;5034305;28;20104;-47
2021/12/04 02:09:45;;;;;;;0.00;0.00;;;;;;;5.93;78.33;98133.00;5034297;28;20096;-48
2021/12/04 02:12:11;;;;;;;0.00;0.00;;;;;;;6.00;78.25;98133.09;5016497;28;20113;-48
2021/12/04 02:14:40;;;;;;;0.00;0.00;;;;;;;5.99;78.02;98129.69;5034227;28;20399;-47
2021/12/04 02:17:08;;;;;;;0.10;0.10;;;;;;;5.99;78.20;98121.06;5034117;28;20048;-48
2021/12/04 02:19:35;;;;;;;0.00;0.00;;;;;;;6.02;77.66;98106.84;5034079;28;20095;-48
2021/12/04 02:22:01;;;;;;;0.00;0.00;;;;;;;6.14;77.52;98095.78;5034052;28;20422;-48
2021/12/04 02:24:27;;;;;;;0.00;0.00;;;;;;;6.24;77.08;98105.06;5016206;28;20517;-48
2021/12/04 02:26:53;;;;;;;0.10;0.10;;;;;;;6.29;76.78;98105.31;5033980;28;20021;-48
2021/12/04 02:29:19;;;;;;;0.00;0.00;;;;;;;6.31;76.01;98082.50;5033886;28;20343;-49
2021/12/04 02:31:50;;;;;;;0.00;0.00;;;;;;;6.35;76.19;98074.09;5016154;28;20084;-49
2021/12/04 02:34:25;;;;;;;0.00;0.00;;;;;;;6.45;74.87;98084.22;5033779;28;20035;-49
2021/12/04 02:36:51;;;;;;;0.00;0.00;;;;;;;6.54;73.49;98083.09;5033594;28;20049;-48
2021/12/04 02:39:37;;;;;;;0.28;0.20;;;;;;;6.64;72.45;98087.97;5033223;28;20022;-49
2021/12/04 02:42:06;;;;;;;;;;;;;;;6.63;73.01;98073.31;5034195;28;20035;-48
2021/12/04 02:44:38;;;;;;;1.17;0.68;;;;;;;6.65;71.57;98041.84;5033520;28;19917;-50
2021/12/04 02:47:06;;;;;;;2.85;1.15;;;;;;;6.60;71.87;98001.50;5033640;28;20035;-48
2021/12/04 02:49:31;;;;;;;2.28;1.10;;;;;;;6.64;71.21;98051.47;5033512;28;20487;-49
2021/12/04 02:52:06;;;;;;;2.47;1.33;;;;;;;6.58;71.84;98020.94;5033484;28;20032;-49
2021/12/04 02:54:33;;;;;;;14.38;9.48;;;;;;;6.69;72.34;98032.63;5015690;28;20040;-48
2021/12/04 02:56:59;;;;;;;1.92;1.20;;;;;;;6.79;71.74;98033.09;5033392;28;20435;-49
2021/12/04 02:59:25;;;;;;;2.33;0.90;;;;;;;6.87;72.09;98034.75;5015492;28;20033;-49
2021/12/04 03:01:57;;;;;;;3.33;1.45;;;;;;;6.91;70.42;98057.66;5033281;28;20013;-49
2021/12/04 03:04:24;;;;;;;1.73;1.33;;;;;;;7.03;71.53;98003.13;5033214;28;20033;-48
2021/12/04 03:06:50;;;;;;;2.40;1.25;;;;;;;7.06;71.30;98061.94;5033154;28;20013;-48
2021/12/04 03:09:18;;;;;;;4.70;1.50;;;;;;;6.95;71.62;97995.47;5033094;28;20032;-50
2021/12/04 03:11:44;;;;;;;5.82;1.10;;;;;;;6.86;72.15;98018.31;5015253;28;20021;-50
2021/12/04 03:14:10;;;;;;;1.45;0.70;;;;;;;6.74;72.44;98014.59;5015301;28;20376;-49
2021/12/04 03:16:39;;;;;;;26.52;17.23;;;;;;;6.66;73.56;98018.19;5015141;28;20523;-50
2021/12/04 03:19:06;;;;;;;2.88;1.85;;;;;;;6.63;73.12;98012.56;5032946;28;20498;-48
2021/12/04 03:21:34;;;;;;;4.30;1.10;;;;;;;6.54;73.38;98004.88;5032769;28;20537;-50
2021/12/04 03:24:04;;;;;;;2.88;1.35;;;;;;;6.49;73.15;98015.06;5032841;28;20029;-49
2021/12/04 03:26:30;;;;;;;4.03;1.17;;;;;;;6.60;73.34;98006.72;5032785;28;20028;-48
2021/12/04 03:28:58;;;;;;;2.72;1.33;;;;;;;6.67;72.55;97956.41;5032793;28;20124;-48
2021/12/04 03:42:07;;;;;;;1.45;0.98;;;;;;;7.32;69.99;97988.16;5032521;28;20040;-49
2021/12/04 03:44:32;;;;;;;2.10;1.00;;;;;;;7.41;69.57;97963.50;5032367;28;20021;-49
2021/12/04 03:47:00;;;;;;;0.60;0.60;;;;;;;7.45;69.58;97962.09;5032644;28;20029;-49
2021/12/04 03:49:26;;;;;;;1.95;0.80;;;;;;;7.49;69.55;97972.97;5031439;28;20104;-49
2021/12/04 03:51:52;;;;;;;2.75;1.92;;;;;;;7.57;68.89;97967.56;5032337;28;20476;-48
2021/12/04 03:54:18;;;;;;;1.50;0.85;;;;;;;7.60;68.36;97961.91;5032293;28;20017;-48
2021/12/04 03:56:44;;;;;;;1.58;0.80;;;;;;;7.55;68.53;97980.00;5032244;28;20041;-48
2021/12/04 03:59:09;;;;;;;2.97;1.65;;;;;;;7.54;68.33;97967.94;5032224;28;20021;-49
2021/12/04 04:01:35;;;;;;;2.58;1.20;;;;;;;7.55;69.87;97964.34;5032246;28;20029;-50
2021/12/04 04:04:01;;;;;;;1.77;0.70;;;;;;;7.59;68.62;97962.94;5032094;28;20395;-49
2021/12/04 04:06:27;;;;;;;2.05;0.77;;;;;;;7.51;68.88;97966.53;5032123;28;20025;-49
2021/12/04 04:08:53;;;;;;;4.65;1.70;;;;;;;7.51;69.58;97968.34;5032113;28;20029;-49
2021/12/04 04:11:19;;;;;;;3.55;1.10;;;;;;;7.54;70.08;97967.94;5032043;28;20036;-50
2021/12/04 04:13:45;;;;;;;1.63;0.60;;;;;;;7.58;69.63;97967.34;5032080;28;20021;-50
2021/12/04 04:16:12;;;;;;;2.60;0.80;;;;;;;7.54;70.48;97996.66;5014041;28;20025;-49
2021/12/04 04:18:38;;;;;;;4.20;1.08;;;;;;;7.51;70.64;97937.81;5031983;28;20021;-49
2021/12/04 04:21:05;;;;;;;1.83;0.82;;;;;;;7.49;70.60;97967.75;5031900;28;20037;-50
2021/12/04 04:23:31;;;;;;;23.83;19.15;;;;;;;7.46;70.70;97939.41;5014081;28;20088;-49
2021/12/04 04:25:57;;;;;;;2.05;0.85;;;;;;;7.35;70.34;97936.38;5031869;28;20033;-49
2021/12/04 04:28:23;;;;;;;0.75;0.50;;;;;;;7.17;71.67;97926.50;5031877;28;20018;-48
2021/12/04 04:30:49;;;;;;;2.13;1.30;;;;;;;7.23;72.82;97945.78;5014076;28;20108;-50
2021/12/04 04:33:15;;;;;;;1.17;0.60;;;;;;;7.29;71.30;97954.66;5031748;28;20117;-49
2021/12/04 04:35:47;;;;;;;2.95;1.25;;;;;;;7.25;71.79;97969.09;5031561;28;20046;-49
2021/12/04 04:38:41;;;;;;;5.65;3.70;;;;;;;7.19;72.78;97971.47;5031775;28;20022;-50
2021/12/04 05:13:25;;;;;;;8.65;5.50;;;;;;;7.70;70.71;97943.25;5035351;28;20076;-49
2021/12/04 05:21:05;;;;;;;3.33;1.15;;;;;;;7.91;69.91;97905.69;5035278;28;20025;-48
2021/12/04 05:23:52;;;;;;;2.95;1.27;;;;;;;7.98;70.50;97909.09;5017328;28;20029;-50
2021/12/04 05:26:25;;;;;;;0.85;0.57;;;;;;;8.04;68.55;97910.88;5017263;28;20045;-49
2021/12/04 05:28:52;;;;;;;1.73;1.00;;;;;;;8.05;67.93;97919.53;5035129;28;20547;-48
2021/12/04 05:31:20;;;;;;;14.63;13.05;;;;;;;8.16;69.44;97893.56;5034946;28;20021;-49
2021/12/04 05:33:47;;;;;;;5.93;4.60;;;;;;;8.31;67.87;97893.38;5017134;28;20026;-49
2021/12/04 05:36:13;;;;;;;4.22;2.97;;;;;;;8.35;67.38;97901.56;5034481;28;20061;-49
2021/12/04 05:38:39;;;;;;;4.30;3.05;;;;;;;8.43;67.27;97874.44;5034866;28;20088;-48
2021/12/04 05:41:05;;;;;;;7.72;1.65;;;;;;;8.61;67.59;97866.72;5034780;28;20029;-49
2021/12/04 05:43:33;;;;;;;5.93;2.20;;;;;;;8.64;68.36;97902.94;5034673;28;20026;-49
2021/12/04 05:46:13;;;;;;;3.40;3.00;;;;;;;8.54;67.53;97866.75;5034652;28;20017;-49
2021/12/04 05:56:17;;;;;;;2.80;2.05;;;;;;;8.47;67.25;97862.56;5034534;28;20455;-49
2021/12/04 05:58:42;;;;;;;1.02;0.80;;;;;;;8.43;66.57;97872.66;5016714;28;20056;-49
2021/12/04 06:01:09;;;;;;;7.55;3.22;;;;;;;8.33;67.83;97890.53;5034432;28;20439;-49
2021/12/04 06:03:35;;;;;;;11.18;10.00;;;;;;;8.33;67.07;97867.81;5016530;28;20029;-48
2021/12/04 06:06:03;;;;;;;23.42;21.08;;;;;;;8.37;67.16;97862.97;5016549;28;20018;-49
2021/12/04 06:08:29;;;;;;;9.50;2.53;;;;;;;8.56;66.63;97850.88;5034168;28;20372;-49
2021/12/04 06:10:56;;;;;;;14.27;0.70;;;;;;;8.69;65.39;97842.97;5034245;28;20383;-49
2021/12/04 06:13:23;;;;;;;3.35;0.90;;;;;;;8.68;65.31;97841.34;5033239;28;20022;-49
2021/12/04 06:15:49;;;;;;;1.95;0.98;;;;;;;8.73;66.15;97830.25;5016428;28;20029;-49
2021/12/04 06:18:16;;;;;;;3.15;1.67;;;;;;;8.74;66.11;97844.94;5034146;28;20026;-49
2021/12/04 06:23:27;;;;;;;4.30;1.48;;;;;;;8.90;65.01;97851.50;5034044;28;20051;-49
2021/12/04 06:25:53;;;;;;;1.25;0.85;;;;;;;8.79;65.13;97845.94;5034014;28;20507;-49
2021/12/04 06:28:19;;;;;;;2.35;0.80;;;;;;;8.68;65.71;97806.56;5033929;28;20386;-49
2021/12/04 06:30:45;;;;;;;2.45;1.88;;;;;;;8.64;65.82;97862.91;5033911;28;20049;-48
2021/12/04 06:33:16;;;;;;;4.88;2.60;;;;;;;8.61;66.59;97824.88;5033910;28;20021;-49
2021/12/04 06:35:42;;;;;;;2.22;1.15;;;;;;;8.82;66.07;97822.97;5033696;28;20423;-49
2021/12/04 06:38:13;;;;;;;4.38;1.70;;;;;;;8.83;65.78;97829.81;5033723;28;20075;-49
2021/12/04 06:40:40;;;;;;;4.22;1.13;;;;;;;8.87;65.80;97837.00;5033813;28;20037;-48
2021/12/04 06:43:07;;;;;;;1.85;0.60;;;;;;;8.86;64.80;97834.63;5033655;28;20395;-49
2021/12/04 06:45:36;;;;;;;1.38;0.90;;;;;;;8.79;66.21;97818.94;5033490;28;20030;-49
2021/12/04 06:48:17;;;;;;;1.42;0.98;;;;;;;8.74;66.38;97822.19;5033588;28;20025;-49
2021/12/04 06:50:47;;;;;;;2.97;0.95;;;;;;;8.64;66.81;97802.75;5033600;28;20108;-49
2021/12/04 06:55:48;;;;;;;8.88;6.22;;;;;;;8.47;68.43;97807.66;5033481;28;20069;-49
2021/12/04 06:58:15;;;;;;;1.77;0.93;;;;;;;8.58;68.04;97813.03;5033428;28;20491;-49
2021/12/04 07:00:41;;;;;;;1.35;0.80;;;;;;;8.71;67.69;97827.03;5033335;28;20026;-49
2021/12/04 07:03:07;;;;;;;0.82;0.60;;;;;;;8.80;67.34;97810.91;5033338;28;20032;-49
2021/12/04 07:05:33;;;;;;;0.85;0.80;;;;;;;8.80;67.07;97789.16;5033127;28;20029;-49
2021/12/04 07:07:59;;;;;;;1.88;0.85;;;;;;;8.78;67.81;97839.09;5033218;28;20017;-49
2021/12/04 07:10:25;;;;;;;4.57;1.13;;;;;;;8.74;67.49;97796.03;5015399;28;20649;-50
2021/12/04 07:12:51;;;;;;;1.10;0.80;;;;;;;8.78;68.13;97775.50;5033128;28;20021;-50
2021/12/04 07:15:16;;;;;;;1.55;0.70;;;;;;;8.75;68.06;97796.84;5033038;28;20038;-49
2021/12/04 07:17:42;;;;;;;1.85;0.77;;;;;;;8.69;68.91;97789.84;5015192;28;20113;-50
2021/12/04 07:20:09;;;;;;;2.42;0.70;;;;;;;8.67;69.93;97769.13;5032978;28;20029;-49
2021/12/04 07:22:35;;;;;;;7.55;5.10;;;;;;;8.72;69.36;97789.44;5032882;28;20104;-49
2021/12/04 07:25:02;;;;;;;6.00;5.40;;;;;;;8.67;69.88;97797.09;5032668;28;20056;-49
2021/12/04 07:27:28;;;;;;;7.15;4.72;;;;;;;8.63;69.42;97783.63;5032765;28;20017;-49
2021/12/04 07:29:55;;;;;;;9.13;6.20;;;;;;;8.64;70.44;97792.28;5015046;28;20112;-50
2021/12/04 07:32:21;;;;;;;3.10;2.53;;;;;;;8.59;69.82;97782.44;5014949;28;20514;-50
2021/12/04 07:34:47;;;;;;;1.65;1.30;;;;;;;8.46;70.04;97764.22;5032474;28;20029;-50
2021/12/04 07:37:13;;;;;;;7.30;3.30;;;;;;;8.44;71.01;97750.56;5032616;28;20024;-49
2021/12/04 07:39:39;;;;;;;0.75;0.65;;;;;;;8.54;71.60;97763.97;5032693;28;20049;-49
2021/12/04 07:42:05;;;;;;;4.85;3.40;;;;;;;8.50;71.53;97760.97;5032530;28;20080;-48
2021/12/04 07:44:31;;;;;;;3.33;1.90;;;;;;;8.53;72.10;97768.41;5032424;28;20075;-50
2021/12/04 07:46:57;;;;;;;1.77;0.93;;;;;;;8.62;71.60;97755.88;5032456;28;20523;-49
2021/12/04 07:49:23;;;;;;;0.75;0.73;;;;;;;8.65;70.98;97772.94;5032457;28;20022;-48
2021/12/04 07:51:50;;;;;;;1.95;1.30;;;;;;;8.61;71.91;97790.88;5032363;28;20041;-50
2021/12/04 07:54:17;;;;;;;1.67;1.02;;;;;;;8.63;71.17;97754.06;5032342;28;20491;-49
2021/12/04 07:56:43;;;;;;;2.47;0.90;;;;;;;8.62;71.67;97761.09;5014580;28;20029;-49
2021/12/04 07:59:09;;;;;;;6.95;1.02;;;;;;;8.69;71.63;97768.91;5032274;28;20127;-50
2021/12/04 08:01:35;;;;;;;2.65;1.38;;;;;;;8.74;72.32;97748.97;5030912;28;20456;-49
2021/12/04 08:04:01;;;;;;;3.40;0.95;;;;;;;8.82;73.35;97745.28;5032104;28;20034;-49
2021/12/04 08:06:27;;;;;;;2.38;1.27;;;;;;;8.91;72.84;97737.97;5032149;28;20574;-50
2021/12/04 08:08:58;;;;;;;1.20;0.68;;;;;;;8.91;71.22;97735.34;5032171;28;20391;-49
2021/12/04 08:11:25;;;;;;;2.67;1.00;;;;;;;8.83;72.36;97746.88;5031985;28;20030;-48
2021/12/04 08:13:51;;;;;;;4.22;0.70;;;;;;;8.76;71.26;97712.13;5032061;28;20570;-49
2021/12/04 08:16:18;;;;;;;2.00;1.10;;;;;;;8.70;72.16;97720.81;5031991;28;20096;-49
2021/12/04 08:18:44;;;;;;;416.27;291.55;;;;;;;8.72;72.31;97716.97;5031850;28;20021;-49
2021/12/04 08:21:10;;;;;;;320.88;224.98;;;;;;;8.75;71.93;97708.72;5031913;28;20026;-48
2021/12/04 08:23:36;;;;;;;252.80;224.93;;;;;;;8.73;73.42;97709.91;5031817;28;20030;-48
2021/12/04 08:26:02;;;;;;;18.85;12.45;;;;;;;8.69;71.78;97716.59;5031892;28;20030;-49
2021/12/04 08:28:28;;;;;;;9.80;8.20;;;;;;;8.58;72.64;97686.69;5031855;28;20022;-49
2021/12/04 08:30:54;;;;;;;53.67;33.15;;;;;;;8.60;73.33;97709.00;5031752;28;20486;-49
2021/12/04 08:33:20;;;;;;;19.45;15.25;;;;;;;8.61;73.43;97707.19;5031809;28;20021;-48
2021/12/04 08:35:46;;;;;;;18.80;11.13;;;;;;;8.58;73.50;97700.56;5030934;28;20077;-49
2021/12/04 08:38:13;;;;;;;5.22;4.15;;;;;;;8.51;72.69;97683.31;5031733;28;20026;-49
2021/12/04 08:40:41;;;;;;;3.47;1.88;;;;;;;8.43;72.99;97705.31;5031676;28;20484;-49
2021/12/04 08:43:08;;;;;;;4.82;2.70;;;;;;;8.35;73.97;97698.47;5031735;28;20021;-48
2021/12/04 08:45:35;;;;;;;3.38;2.38;;;;;;;8.41;73.96;97702.09;5031511;28;20517;-49
2021/12/04 08:48:00;;;;;;;7.25;3.65;;;;;;;8.48;73.24;97697.63;5031662;28;20024;-49
2021/12/04 08:50:29;;;;;;;1.60;1.33;;;;;;;8.46;73.18;97683.16;5013916;28;20022;-49
2021/12/04 08:52:56;;;;;;;3.45;1.92;;;;;;;8.50;73.19;97679.13;5031625;28;20021;-49
2021/12/04 08:55:23;;;;;;;1.90;1.70;;;;;;;8.48;72.61;97691.59;5031432;28;20033;-51
2021/12/04 08:57:49;;;;;;;2.45;1.17;;;;;;;8.53;72.45;97689.97;5030240;28;20121;-48
2021/12/04 09:00:23;;;;;;;4.00;1.60;;;;;;;8.52;72.56;97664.00;5031491;28;20058;-49
2021/12/04 09:02:50;;;;;;;2.28;1.60;;;;;;;8.48;73.39;97692.41;5031621;28;20026;-48
2021/12/04 09:05:18;;;;;;;1.45;1.20;;;;;;;8.44;73.64;97703.50;5031415;28;20021;-48
2021/12/04 09:07:44;;;;;;;4.55;1.88;;;;;;;8.37;73.68;97695.63;5031475;28;20151;-48
2021/12/04 09:10:12;;;;;;;2.92;1.95;;;;;;;8.45;74.02;97685.00;5031415;28;20028;-48
2021/12/04 09:12:38;;;;;;;2.80;1.50;;;;;;;8.37;73.96;97706.91;5013699;28;20554;-48
2021/12/04 09:15:07;;;;;;;5.57;1.63;;;;;;;8.33;73.69;97707.53;5013833;28;20040;-48
2021/12/04 09:17:33;;;;;;;2.92;1.70;;;;;;;8.28;73.71;97696.91;5013604;28;20032;-48
2021/12/04 09:19:59;;;;;;;1.75;1.30;;;;;;;8.29;74.25;97672.34;5031368;28;20057;-47
2021/12/04 09:22:29;;;;;;;3.78;1.42;;;;;;;8.28;75.01;97673.38;5031347;28;20029;-47
2021/12/04 09:24:59;;;;;;;3.95;1.67;;;;;;;8.18;74.66;97699.97;5031257;28;20068;-48
2021/12/04 09:33:18;;;;;;;2.57;1.80;;;;;;;8.09;75.32;97656.78;5031406;28;20025;-48
2021/12/04 10:02:41;;;;;;;2.03;1.10;;;;;;;8.26;76.95;97673.59;5054417;28;20036;-48
2021/12/04 10:05:34;;;;;;;1.00;0.90;;;;;;;8.18;77.65;97666.00;5054301;28;20398;-48
2021/12/04 10:16:53;;;;;;;2.95;1.80;;;;;;;8.30;78.64;97680.00;5054198;28;20032;-48
2021/12/04 10:19:44;;;;;;;2.15;1.20;;;;;;;8.25;78.72;97652.88;5053884;28;20029;-49
2021/12/04 10:22:23;;;;;;;4.07;1.00;;;;;;;8.19;78.50;97642.28;5054007;28;20014;-48
2021/12/04 10:33:52;;;;;;;1.42;1.10;;;;;;;8.28;79.06;97618.50;4992510;28;20092;-49
2021/12/04 10:36:27;;;;;;;2.35;1.23;;;;;;;8.26;79.02;97620.53;4992043;28;20512;-49
2021/12/04 10:38:53;;;;;;;2.80;1.00;;;;;;;8.32;78.96;97604.00;4992302;28;20432;-49
2021/12/04 10:41:32;;;;;;;4.25;1.23;;;;;;;8.35;79.33;97580.84;4992179;28;20026;-50
2021/12/04 10:44:19;;;;;;;2.47;1.55;;;;;;;8.51;79.01;97561.25;4992177;28;20050;-49
2021/12/04 10:47:15;;;;;;;2.03;1.13;;;;;;;8.56;77.92;97566.59;4992104;28;20137;-49
2021/12/04 11:00:43;;;;;;;9.52;5.05;;;;;;;9.29;75.56;97557.19;4991911;28;20056;-49
2021/12/04 11:03:35;;;;;;;2.93;1.80;;;;;;;9.31;75.46;97544.69;5053361;28;20040;-49
2021/12/04 11:06:39;;;;;;;0.57;0.52;;;;;;;9.45;74.71;97568.91;5052970;28;20112;-49
2021/12/04 11:40:28;;;;;;;1.02;0.93;;;;;;;9.76;72.42;97552.19;5052920;28;20064;-48
2021/12/04 11:43:02;;;;;;;1.42;1.10;;;;;;;9.76;71.51;97507.66;5052561;28;20032;-48
2021/12/04 11:48:29;;;;;;;3.95;1.27;;;;;;;9.76;71.29;97549.56;5052471;28;20414;-49
2021/12/04 11:50:55;;;;;;;2.17;1.67;;;;;;;9.94;70.45;97535.59;5034131;28;20507;-48
2021/12/04 11:53:21;;;;;;;2.58;1.50;;;;;;;10.04;70.71;97557.84;5052194;28;20023;-49
2021/12/04 11:55:48;;;;;;;1.67;0.93;;;;;;;10.19;70.67;97572.13;5052302;28;20179;-49
2021/12/04 11:58:23;;;;;;;2.15;1.15;;;;;;;10.16;70.21;97546.38;5034662;28;20021;-49
2021/12/04 12:00:52;;;;;;;4.55;1.20;;;;;;;10.20;69.81;97544.06;5052211;28;20028;-49
2021/12/04 12:03:24;;;;;;;4.35;3.83;;;;;;;10.24;69.71;97557.53;5034178;28;20033;-49
2021/12/04 12:05:59;;;;;;;3.38;1.70;;;;;;;10.37;69.12;97571.28;5052053;28;20040;-50
2021/12/04 12:08:27;;;;;;;;;;;;;;;10.49;68.95;97560.78;5052209;28;20027;-49
2021/12/04 12:10:58;;;;;;;1.83;1.20;;;;;;;10.49;69.29;97541.63;5033405;28;19951;-49
2021/12/04 12:13:31;;;;;;;1.80;1.08;;;;;;;10.38;69.20;97545.84;5052146;28;20033;-49
2021/12/04 12:16:23;;;;;;;1.92;1.27;;;;;;;10.37;69.05;97557.38;5051945;28;20071;-49
2021/12/04 12:19:04;;;;;;;2.55;1.48;;;;;;;10.36;70.00;97561.81;5044191;28;20044;-49
2021/12/04 12:21:43;;;;;;;1.83;0.85;;;;;;;10.49;68.93;97568.66;5051911;28;20021;-49
2021/12/04 12:33:17;;;;;;;3.65;1.10;;;;;;;10.84;67.45;97575.72;5052070;28;20036;-50
2021/12/04 12:38:08;;;;;;;1.88;1.05;;;;;;;10.74;68.06;97567.63;5051721;28;20036;-50
2021/12/04 12:40:34;;;;;;;1.73;0.90;;;;;;;10.71;67.85;97568.09;5051667;28;20283;-50
2021/12/04 12:43:17;;;;;;;1.75;1.15;;;;;;;10.73;68.47;97579.16;5051630;28;20067;-49
2021/12/04 12:45:58;;;;;;;1.42;0.88;;;;;;;10.76;67.89;97568.19;5033441;28;20120;-52
2021/12/04 12:48:25;;;;;;;2.58;1.20;;;;;;;10.68;68.20;97574.59;5051607;28;20024;-50
2021/12/04 12:50:52;;;;;;;2.05;0.95;;;;;;;10.65;67.91;97556.69;5051536;28;20491;-49
2021/12/04 12:53:26;;;;;;;5.03;1.00;;;;;;;10.75;67.77;97574.50;5051581;28;20049;-50
2021/12/04 12:56:07;;;;;;;1.20;0.60;;;;;;;10.76;66.99;97579.50;5051527;28;20104;-50
2021/12/04 12:59:21;;;;;;;3.10;2.53;;;;;;;10.70;67.62;97569.91;5033675;28;20449;-49
2021/12/04 13:12:51;;;;;;;2.13;1.00;;;;;;;10.75;67.04;97579.75;5051659;28;20036;-50
2021/12/04 13:15:32;;;;;;;2.28;1.58;;;;;;;10.82;67.36;97566.50;5033374;28;20477;-50
2021/12/04 13:18:17;;;;;;;2.90;0.90;;;;;;;10.87;66.65;97564.78;5051074;28;20124;-49
2021/12/04 13:20:44;;;;;;;3.03;0.95;;;;;;;10.92;66.71;97566.72;5051373;28;20029;-50
2021/12/04 13:23:12;;;;;;;3.60;1.05;;;;;;;10.87;66.53;97583.16;5054499;28;20394;-50
2021/12/04 13:25:47;;;;;;;1.90;0.80;;;;;;;10.94;66.53;97572.53;5055037;28;20441;-50
2021/12/04 13:28:22;;;;;;;3.33;1.00;;;;;;;11.02;66.74;97574.81;5055200;28;20105;-50
2021/12/04 13:30:48;;;;;;;1.10;1.00;;;;;;;11.06;66.24;97564.66;5054833;28;20044;-50
2021/12/04 13:33:14;;;;;;;0.85;0.80;;;;;;;11.00;66.31;97566.34;5054996;28;20090;-50
2021/12/04 13:35:45;;;;;;;3.60;0.82;;;;;;;10.95;66.41;97577.56;5046963;28;20045;-50
2021/12/04 13:38:11;;;;;;;1.90;1.10;;;;;;;10.98;66.44;97532.47;5035035;28;20021;-50
2021/12/04 13:40:38;;;;;;;3.38;1.27;;;;;;;11.03;66.28;97565.09;5034933;28;20029;-50
2021/12/04 13:43:12;;;;;;;4.88;1.38;;;;;;;11.06;66.54;97596.16;5034909;28;20025;-50
2021/12/04 13:45:38;;;;;;;0.88;0.70;;;;;;;11.18;66.33;97560.97;5016984;28;20029;-49
2021/12/04 13:48:05;;;;;;;4.00;2.33;;;;;;;11.30;65.70;97555.69;5016971;28;20124;-50
2021/12/04 13:53:17;;;;;;;1.20;0.70;;;;;;;11.26;65.16;97577.41;5034946;28;20499;-50
2021/12/04 13:56:05;;;;;;;2.65;1.00;;;;;;;11.15;65.81;97558.81;5016804;28;20453;-49
2021/12/04 13:58:32;;;;;;;1.80;0.80;;;;;;;11.17;66.00;97571.72;5034666;28;20041;-49
2021/12/04 14:01:00;;;;;;;6.57;1.58;;;;;;;11.18;65.92;97563.59;5034803;28;20025;-50
2021/12/04 14:03:31;;;;;;;7.18;3.45;;;;;;;11.22;65.64;97573.63;5034459;28;20469;-50
2021/12/04 14:05:58;;;;;;;2.42;1.38;;;;;;;11.17;65.89;97572.50;5034411;28;20164;-50
2021/12/04 14:08:24;;;;;;;1.65;1.00;;;;;;;11.18;66.04;97568.03;5034398;28;20030;-51
2021/12/04 14:10:51;;;;;;;2.58;1.10;;;;;;;11.21;65.68;97570.22;5034328;28;20021;-50
2021/12/04 14:13:21;;;;;;;1.67;1.00;;;;;;;11.34;65.64;97561.28;5034382;28;20036;-48
2021/12/04 14:15:47;;;;;;;2.65;1.10;;;;;;;11.45;65.58;97549.13;5034248;28;20523;-50
2021/12/04 14:18:17;;;;;;;4.22;1.33;;;;;;;11.62;64.94;97570.22;5034260;28;20025;-49
2021/12/04 14:20:47;;;;;;;6.28;1.30;;;;;;;11.86;64.26;97555.16;5016301;28;20480;-49
2021/12/04 14:23:12;;;;;;;1.23;0.93;;;;;;;11.94;63.74;97571.34;5016362;28;20022;-49
2021/12/04 14:25:44;;;;;;;1.23;0.90;;;;;;;11.89;63.99;97562.56;5016218;28;20027;-49
2021/12/04 14:28:16;;;;;;;3.17;1.67;;;;;;;12.13;63.72;97553.53;5034193;28;20395;-49
2021/12/04 14:30:44;;;;;;;7.28;1.45;;;;;;;12.27;62.97;97551.38;5034010;28;20100;-50
2021/12/04 14:33:13;;;;;;;1.73;1.20;;;;;;;12.19;62.94;97543.88;5033173;28;20033;-50
2021/12/04 14:35:43;;;;;;;1.45;1.05;;;;;;;12.06;63.03;97555.53;5033653;28;20049;-50
2021/12/04 14:38:13;;;;;;;3.92;1.35;;;;;;;12.04;64.49;97560.22;5033890;28;20096;-49
2021/12/04 14:40:45;;;;;;;6.80;3.63;;;;;;;11.69;66.45;97570.84;5015961;28;20121;-49
2021/12/04 14:43:14;;;;;;;6.32;2.50;;;;;;;11.15;69.85;97590.31;5033568;28;20025;-49
2021/12/04 14:45:44;;;;;;;2.50;1.48;;;;;;;10.63;72.22;97590.22;5015811;28;20065;-50
2021/12/04 14:48:22;;;;;;;7.85;1.88;;;;;;;10.14;73.76;97592.16;5033638;28;20022;-50
2021/12/04 14:50:52;;;;;;;6.32;1.77;;;;;;;9.71;75.66;97617.53;5033908;28;20029;-49
2021/12/04 14:53:20;;;;;;;7.88;2.03;;;;;;;9.51;76.52;97609.13;5033520;28;20037;-50
2021/12/04 14:55:51;;;;;;;4.57;2.13;;;;;;;9.46;77.06;97611.63;5033451;28;20033;-50
2021/12/04 14:58:20;;;;;;;2.55;1.73;;;;;;;9.40;77.73;97610.66;5015559;28;20026;-50
2021/12/04 15:00:54;;;;;;;3.85;1.35;;;;;;;9.30;77.53;97616.41;5033424;28;20116;-49